createdAt,value
2018-03-21T00:00:04.681Z,0.00
2018-03-21T00:01:04.705Z,0.00
2018-03-21T00:02:04.733Z,0.00
2018-03-21T00:03:04.755Z,0.00
2018-03-21T00:04:04.780Z,0.00
2018-03-21T00:05:04.804Z,0.00
2018-03-21T00:06:04.830Z,0.00
2018-03-21T00:07:04.883Z,0.00
2018-03-21T00:08:04.889Z,0.00
2018-03-21T00:09:04.911Z,0.00
2018-03-21T00:10:04.932Z,0.00
2018-03-21T00:11:04.956Z,0.00
2018-03-21T00:12:04.983Z,0.00
2018-03-21T00:13:05.008Z,0.00
2018-03-21T00:14:05.033Z,0.00
2018-03-21T00:15:05.057Z,0.00
2018-03-21T00:16:05.084Z,0.00
2018-03-21T00:17:05.110Z,0.00
2018-03-21T00:18:05.135Z,0.00
2018-03-21T00:19:05.183Z,0.00
2018-03-21T00:20:05.187Z,0.00
2018-03-21T00:21:05.220Z,0.00
2018-03-21T00:22:05.235Z,0.00
2018-03-21T00:23:05.261Z,0.00
2018-03-21T00:24:05.291Z,0.00
2018-03-21T00:25:05.311Z,0.00
2018-03-21T00:26:05.336Z,0.00
2018-03-21T00:27:05.361Z,0.00
2018-03-21T00:28:05.388Z,0.00
2018-03-21T00:29:05.413Z,0.00
2018-03-21T00:30:05.436Z,0.00
2018-03-21T00:31:05.461Z,0.00
2018-03-21T00:32:05.488Z,0.00
2018-03-21T00:33:05.512Z,0.00
2018-03-21T00:34:05.540Z,0.00
2018-03-21T00:35:05.571Z,0.00
2018-03-21T00:36:05.589Z,0.00
2018-03-21T00:37:05.614Z,0.00
2018-03-21T00:38:05.639Z,0.00
2018-03-21T00:39:05.664Z,0.00
2018-03-21T00:40:05.688Z,0.00
2018-03-21T00:41:05.714Z,0.00
2018-03-21T00:42:05.736Z,0.00
2018-03-21T00:43:05.768Z,0.00
2018-03-21T00:44:05.791Z,0.00
2018-03-21T00:45:05.814Z,0.00
2018-03-21T00:46:05.839Z,0.00
2018-03-21T00:47:05.872Z,0.00
2018-03-21T00:48:05.889Z,0.00
2018-03-21T00:49:05.912Z,0.00
2018-03-21T00:50:05.937Z,0.00
2018-03-21T00:51:05.967Z,0.00
2018-03-21T00:52:05.987Z,0.00
2018-03-21T00:53:06.013Z,0.00
2018-03-21T00:54:06.044Z,0.00
2018-03-21T00:55:06.062Z,0.00
2018-03-21T00:56:06.085Z,0.00
2018-03-21T00:57:06.111Z,0.00
2018-03-21T00:58:06.136Z,0.00
2018-03-21T00:59:06.162Z,0.00
2018-03-21T01:00:06.188Z,0.00
2018-03-21T01:01:06.210Z,0.00
2018-03-21T01:02:06.235Z,0.00
2018-03-21T01:03:06.261Z,0.00
2018-03-21T01:04:06.285Z,0.00
2018-03-21T01:05:06.310Z,0.00
2018-03-21T01:06:06.335Z,0.00
2018-03-21T01:07:06.359Z,0.00
2018-03-21T01:08:06.384Z,0.00
2018-03-21T01:09:06.410Z,0.00
2018-03-21T01:10:06.433Z,0.00
2018-03-21T01:11:06.459Z,0.00
2018-03-21T01:12:06.484Z,0.00
2018-03-21T01:13:06.507Z,0.00
2018-03-21T01:14:06.533Z,0.00
2018-03-21T01:15:06.560Z,0.00
2018-03-21T01:16:06.583Z,0.00
2018-03-21T01:17:06.609Z,0.00
2018-03-21T01:18:06.633Z,0.00
2018-03-21T01:19:06.656Z,0.00
2018-03-21T01:20:06.681Z,0.00
2018-03-21T01:21:06.706Z,0.00
2018-03-21T01:22:06.732Z,0.00
2018-03-21T01:23:06.756Z,0.00
2018-03-21T01:24:06.781Z,0.00
2018-03-21T01:25:06.807Z,0.00
2018-03-21T01:26:06.831Z,0.00
2018-03-21T01:27:06.859Z,0.00
2018-03-21T01:28:06.881Z,0.00
2018-03-21T01:29:06.905Z,0.00
2018-03-21T01:30:06.929Z,0.00
2018-03-21T01:31:06.955Z,0.00
2018-03-21T01:32:06.980Z,0.00
2018-03-21T01:33:07.005Z,0.00
2018-03-21T01:34:07.029Z,0.00
2018-03-21T01:35:07.053Z,0.00
2018-03-21T01:36:07.079Z,0.00
2018-03-21T01:37:07.106Z,0.00
2018-03-21T01:38:07.127Z,0.00
2018-03-21T01:39:07.155Z,0.00
2018-03-21T01:40:07.178Z,0.00
2018-03-21T01:41:07.202Z,0.00
2018-03-21T01:42:07.225Z,0.00
2018-03-21T01:43:07.251Z,0.00
2018-03-21T01:44:07.276Z,0.00
2018-03-21T01:45:07.300Z,0.00
2018-03-21T01:46:07.326Z,0.00
2018-03-21T01:47:07.393Z,0.00
2018-03-21T01:48:07.376Z,0.00
2018-03-21T01:49:07.400Z,0.00
2018-03-21T01:50:07.422Z,0.00
2018-03-21T01:51:07.447Z,0.00
2018-03-21T01:52:07.472Z,0.00
2018-03-21T01:53:07.498Z,0.00
2018-03-21T01:54:07.521Z,0.00
2018-03-21T01:55:07.544Z,0.00
2018-03-21T01:56:07.570Z,0.00
2018-03-21T01:57:07.594Z,0.00
2018-03-21T01:58:07.620Z,0.00
2018-03-21T01:59:07.644Z,0.00
2018-03-21T02:00:07.668Z,0.00
2018-03-21T02:01:07.693Z,0.00
2018-03-21T02:02:07.716Z,0.00
2018-03-21T02:03:07.743Z,0.00
2018-03-21T02:04:07.767Z,0.00
2018-03-21T02:05:07.790Z,0.00
2018-03-21T02:06:07.813Z,0.00
2018-03-21T02:07:07.838Z,0.00
2018-03-21T02:08:07.863Z,0.00
2018-03-21T02:09:07.887Z,0.00
2018-03-21T02:10:07.911Z,0.00
2018-03-21T02:11:07.941Z,0.00
2018-03-21T02:12:07.964Z,0.00
2018-03-21T02:13:07.986Z,0.00
2018-03-21T02:14:08.009Z,0.00
2018-03-21T02:15:08.036Z,0.00
2018-03-21T02:16:08.058Z,0.00
2018-03-21T02:17:08.083Z,0.00
2018-03-21T02:18:08.106Z,0.00
2018-03-21T02:19:08.131Z,0.00
2018-03-21T02:20:08.157Z,0.00
2018-03-21T02:21:08.180Z,0.00
2018-03-21T02:22:08.203Z,0.00
2018-03-21T02:23:08.227Z,0.00
2018-03-21T02:24:08.252Z,0.00
2018-03-21T02:25:08.277Z,0.00
2018-03-21T02:26:08.300Z,0.00
2018-03-21T02:27:08.329Z,0.00
2018-03-21T02:28:08.348Z,0.00
2018-03-21T02:29:08.375Z,0.00
2018-03-21T02:30:08.398Z,0.00
2018-03-21T02:31:08.423Z,0.00
2018-03-21T02:32:08.447Z,0.00
2018-03-21T02:33:08.473Z,0.00
2018-03-21T02:34:08.494Z,0.00
2018-03-21T02:35:08.519Z,0.00
2018-03-21T02:36:08.545Z,0.00
2018-03-21T02:37:08.568Z,0.00
2018-03-21T02:38:08.593Z,0.00
2018-03-21T02:39:08.618Z,0.00
2018-03-21T02:40:08.640Z,0.00
2018-03-21T02:41:08.664Z,0.00
2018-03-21T02:42:08.687Z,0.00
2018-03-21T02:43:08.712Z,0.00
2018-03-21T02:44:08.736Z,0.00
2018-03-21T02:45:08.760Z,0.00
2018-03-21T02:46:08.784Z,0.00
2018-03-21T02:47:08.807Z,0.00
2018-03-21T02:48:08.837Z,0.00
2018-03-21T02:49:08.856Z,0.00
2018-03-21T02:50:08.878Z,0.00
2018-03-21T02:51:08.903Z,0.00
2018-03-21T02:52:08.930Z,0.00
2018-03-21T02:53:08.952Z,0.00
2018-03-21T02:54:08.979Z,0.00
2018-03-21T02:55:09.000Z,0.00
2018-03-21T02:56:09.025Z,0.00
2018-03-21T02:57:09.048Z,0.00
2018-03-21T02:58:09.072Z,0.00
2018-03-21T02:59:09.094Z,0.00
2018-03-21T03:00:09.124Z,0.00
2018-03-21T03:01:09.143Z,0.00
2018-03-21T03:02:09.176Z,0.00
2018-03-21T03:03:09.190Z,0.00
2018-03-21T03:04:09.214Z,0.00
2018-03-21T03:05:09.239Z,0.00
2018-03-21T03:06:09.263Z,0.00
2018-03-21T03:07:09.285Z,0.00
2018-03-21T03:08:09.310Z,0.00
2018-03-21T03:09:09.333Z,0.00
2018-03-21T03:10:09.356Z,0.00
2018-03-21T03:11:09.380Z,0.00
2018-03-21T03:12:09.404Z,0.00
2018-03-21T03:13:09.427Z,0.00
2018-03-21T03:14:09.457Z,0.00
2018-03-21T03:15:09.475Z,0.00
2018-03-21T03:16:09.500Z,0.00
2018-03-21T03:17:09.524Z,0.00
2018-03-21T03:18:09.546Z,0.00
2018-03-21T03:19:09.570Z,0.00
2018-03-21T03:20:09.595Z,0.00
2018-03-21T03:21:09.619Z,0.00
2018-03-21T03:22:09.640Z,0.00
2018-03-21T03:23:09.664Z,0.00
2018-03-21T03:24:09.692Z,0.00
2018-03-21T03:25:09.713Z,0.00
2018-03-21T03:26:09.736Z,0.00
2018-03-21T03:27:09.760Z,0.00
2018-03-21T03:28:09.783Z,0.00
2018-03-21T03:29:09.807Z,0.00
2018-03-21T03:30:09.834Z,0.00
2018-03-21T03:31:09.856Z,0.00
2018-03-21T03:32:09.878Z,0.00
2018-03-21T03:33:09.903Z,0.00
2018-03-21T03:34:09.925Z,0.00
2018-03-21T03:35:09.948Z,0.00
2018-03-21T03:36:09.971Z,0.00
2018-03-21T03:37:09.994Z,0.00
2018-03-21T03:38:10.019Z,0.00
2018-03-21T03:39:10.042Z,0.00
2018-03-21T03:40:10.066Z,0.00
2018-03-21T03:41:10.090Z,0.00
2018-03-21T03:42:10.113Z,0.00
2018-03-21T03:43:10.137Z,0.00
2018-03-21T03:44:10.160Z,0.00
2018-03-21T03:45:10.184Z,0.00
2018-03-21T03:46:10.207Z,0.00
2018-03-21T03:47:10.230Z,0.00
2018-03-21T03:48:10.254Z,0.00
2018-03-21T03:49:10.277Z,0.00
2018-03-21T03:50:10.300Z,0.00
2018-03-21T03:51:10.324Z,0.00
2018-03-21T03:52:10.348Z,0.00
2018-03-21T03:53:10.373Z,0.00
2018-03-21T03:54:10.401Z,0.00
2018-03-21T03:55:10.418Z,0.00
2018-03-21T03:56:10.440Z,0.00
2018-03-21T03:57:10.464Z,0.00
2018-03-21T03:58:10.487Z,0.00
2018-03-21T03:59:10.511Z,0.00
2018-03-21T04:00:10.535Z,0.00
2018-03-21T04:01:10.556Z,0.00
2018-03-21T04:02:10.581Z,0.00
2018-03-21T04:03:10.604Z,0.00
2018-03-21T04:04:10.628Z,0.00
2018-03-21T04:05:10.651Z,0.00
2018-03-21T04:06:10.674Z,0.00
2018-03-21T04:07:10.755Z,0.00
2018-03-21T04:08:10.725Z,0.00
2018-03-21T04:09:10.745Z,0.00
2018-03-21T04:10:10.767Z,0.00
2018-03-21T04:11:10.790Z,0.00
2018-03-21T04:12:10.814Z,0.00
2018-03-21T04:13:10.839Z,0.00
2018-03-21T04:14:10.859Z,0.00
2018-03-21T04:15:10.882Z,0.00
2018-03-21T04:16:10.907Z,0.00
2018-03-21T04:17:10.931Z,0.00
2018-03-21T04:18:10.952Z,0.00
2018-03-21T04:19:10.975Z,0.00
2018-03-21T04:20:10.999Z,0.00
2018-03-21T04:21:11.023Z,0.00
2018-03-21T04:22:11.046Z,0.00
2018-03-21T04:23:11.073Z,0.00
2018-03-21T04:24:11.092Z,0.00
2018-03-21T04:25:11.115Z,0.00
2018-03-21T04:26:11.139Z,0.00
2018-03-21T04:27:11.161Z,0.00
2018-03-21T04:28:11.184Z,0.00
2018-03-21T04:29:11.208Z,0.00
2018-03-21T04:30:11.230Z,0.00
2018-03-21T04:31:11.254Z,0.00
2018-03-21T04:32:11.276Z,0.00
2018-03-21T04:33:11.300Z,0.00
2018-03-21T04:34:11.323Z,0.00
2018-03-21T04:35:11.346Z,0.00
2018-03-21T04:36:11.369Z,0.00
2018-03-21T04:37:11.392Z,0.00
2018-03-21T04:38:11.414Z,0.00
2018-03-21T04:39:11.438Z,0.00
2018-03-21T04:40:11.460Z,0.00
2018-03-21T04:41:11.485Z,0.00
2018-03-21T04:42:11.506Z,0.00
2018-03-21T04:43:11.530Z,0.00
2018-03-21T04:44:11.553Z,0.00
2018-03-21T04:45:11.577Z,0.00
2018-03-21T04:46:11.599Z,0.00
2018-03-21T04:47:11.623Z,0.00
2018-03-21T04:48:11.646Z,0.00
2018-03-21T04:49:11.668Z,0.00
2018-03-21T04:50:11.690Z,0.00
2018-03-21T04:51:11.714Z,0.00
2018-03-21T04:52:11.737Z,0.00
2018-03-21T04:53:11.759Z,0.00
2018-03-21T04:54:11.781Z,0.00
2018-03-21T04:55:11.806Z,0.00
2018-03-21T04:56:11.828Z,0.00
2018-03-21T04:57:11.851Z,0.00
2018-03-21T04:58:11.875Z,0.00
2018-03-21T04:59:11.897Z,0.00
2018-03-21T05:00:11.923Z,4.00
2018-03-21T05:01:11.943Z,4.00
2018-03-21T05:02:11.964Z,0.00
2018-03-21T05:03:11.988Z,4.00
2018-03-21T05:04:12.011Z,0.00
2018-03-21T05:05:12.034Z,4.00
2018-03-21T05:06:12.056Z,4.00
2018-03-21T05:07:12.079Z,4.00
2018-03-21T05:08:12.101Z,8.00
2018-03-21T05:09:12.125Z,8.00
2018-03-21T05:10:12.147Z,12.00
2018-03-21T05:11:12.172Z,12.00
2018-03-21T05:12:12.193Z,16.00
2018-03-21T05:13:12.216Z,20.00
2018-03-21T05:14:12.241Z,24.00
2018-03-21T05:15:12.261Z,28.00
2018-03-21T05:16:12.284Z,32.00
2018-03-21T05:17:12.307Z,40.00
2018-03-21T05:18:12.329Z,48.00
2018-03-21T05:19:12.352Z,56.00
2018-03-21T05:20:12.375Z,64.00
2018-03-21T05:21:12.398Z,76.00
2018-03-21T05:22:12.420Z,84.00
2018-03-21T05:23:12.443Z,100.00
2018-03-21T05:24:12.466Z,116.00
2018-03-21T05:25:12.489Z,132.00
2018-03-21T05:26:12.510Z,148.00
2018-03-21T05:27:12.537Z,172.00
2018-03-21T05:28:12.557Z,196.00
2018-03-21T05:29:12.580Z,216.00
2018-03-21T05:30:12.602Z,244.00
2018-03-21T05:31:12.625Z,272.00
2018-03-21T05:32:12.648Z,300.00
2018-03-21T05:33:12.696Z,332.00
2018-03-21T05:34:12.691Z,364.00
2018-03-21T05:35:12.716Z,400.00
2018-03-21T05:36:12.739Z,436.00
2018-03-21T05:37:12.760Z,468.00
2018-03-21T05:38:12.783Z,512.00
2018-03-21T05:39:12.806Z,548.00
2018-03-21T05:40:12.829Z,592.00
2018-03-21T05:41:12.851Z,636.00
2018-03-21T05:42:12.874Z,676.00
2018-03-21T05:43:12.900Z,720.00
2018-03-21T05:44:12.921Z,764.00
2018-03-21T05:45:12.944Z,812.00
2018-03-21T05:46:12.964Z,856.00
2018-03-21T05:47:12.988Z,904.00
2018-03-21T05:48:13.010Z,952.00
2018-03-21T05:49:13.032Z,1000.00
2018-03-21T05:50:13.055Z,1048.00
2018-03-21T05:51:13.078Z,1100.00
2018-03-21T05:52:13.100Z,1148.00
2018-03-21T05:53:13.124Z,1196.00
2018-03-21T05:54:13.146Z,1244.00
2018-03-21T05:55:13.168Z,1296.00
2018-03-21T05:56:13.191Z,1344.00
2018-03-21T05:57:13.223Z,1396.00
2018-03-21T05:58:13.239Z,1452.00
2018-03-21T05:59:13.269Z,1512.00
2018-03-21T06:00:13.281Z,1568.00
2018-03-21T06:01:13.313Z,1620.00
2018-03-21T06:02:13.328Z,1676.00
2018-03-21T06:03:13.351Z,1728.00
2018-03-21T06:04:13.386Z,1784.00
2018-03-21T06:05:13.396Z,1836.00
2018-03-21T06:06:13.418Z,1884.00
2018-03-21T06:07:13.441Z,1928.00
2018-03-21T06:08:13.464Z,1980.00
2018-03-21T06:09:13.486Z,2032.00
2018-03-21T06:10:13.511Z,2084.00
2018-03-21T06:11:13.533Z,2132.00
2018-03-21T06:12:13.554Z,2184.00
2018-03-21T06:13:13.579Z,2236.00
2018-03-21T06:14:13.599Z,2284.00
2018-03-21T06:15:13.624Z,2336.00
2018-03-21T06:16:13.647Z,2388.00
2018-03-21T06:17:13.671Z,2436.00
2018-03-21T06:18:13.699Z,2484.00
2018-03-21T06:19:13.723Z,2528.00
2018-03-21T06:20:13.752Z,2572.00
2018-03-21T06:21:13.761Z,2608.00
2018-03-21T06:22:13.784Z,2652.00
2018-03-21T06:23:13.820Z,2692.00
2018-03-21T06:24:13.831Z,2732.00
2018-03-21T06:25:13.855Z,2776.00
2018-03-21T06:26:13.876Z,2824.00
2018-03-21T06:27:13.900Z,2868.00
2018-03-21T06:28:13.923Z,2904.00
2018-03-21T06:29:13.946Z,2948.00
2018-03-21T06:30:13.968Z,2996.00
2018-03-21T06:31:13.994Z,3036.00
2018-03-21T06:32:14.016Z,3080.00
2018-03-21T06:33:14.039Z,3116.00
2018-03-21T06:34:14.061Z,3128.00
2018-03-21T06:35:14.085Z,3184.00
2018-03-21T06:36:14.109Z,3224.00
2018-03-21T06:37:14.132Z,3240.00
2018-03-21T06:38:14.154Z,3284.00
2018-03-21T06:39:14.178Z,3348.00
2018-03-21T06:40:14.202Z,3392.00
2018-03-21T06:41:14.225Z,3412.00
2018-03-21T06:42:14.248Z,3480.00
2018-03-21T06:43:14.272Z,3532.00
2018-03-21T06:44:14.296Z,3604.00
2018-03-21T06:45:14.319Z,3640.00
2018-03-21T06:46:14.342Z,3684.00
2018-03-21T06:47:14.365Z,3668.00
2018-03-21T06:48:14.389Z,3720.00
2018-03-21T06:49:14.413Z,3744.00
2018-03-21T06:50:14.436Z,3764.00
2018-03-21T06:51:14.460Z,3828.00
2018-03-21T06:52:14.484Z,3848.00
2018-03-21T06:53:14.508Z,3888.00
2018-03-21T06:54:14.530Z,3916.00
2018-03-21T06:55:14.555Z,3956.00
2018-03-21T06:56:14.584Z,4024.00
2018-03-21T06:57:14.602Z,4060.00
2018-03-21T06:58:14.626Z,4100.00
2018-03-21T06:59:14.650Z,4088.00
2018-03-21T07:00:14.675Z,4128.00
2018-03-21T07:01:14.700Z,4184.00
2018-03-21T07:02:14.744Z,4212.00
2018-03-21T07:03:14.746Z,4268.00
2018-03-21T07:04:14.769Z,4312.00
2018-03-21T07:05:14.795Z,4352.00
2018-03-21T07:06:14.818Z,4404.00
2018-03-21T07:07:14.843Z,4464.00
2018-03-21T07:08:14.868Z,4516.00
2018-03-21T07:09:14.890Z,4576.00
2018-03-21T07:10:14.919Z,4632.00
2018-03-21T07:11:14.939Z,4680.00
2018-03-21T07:12:14.964Z,4740.00
2018-03-21T07:13:14.989Z,4784.00
2018-03-21T07:14:15.016Z,4852.00
2018-03-21T07:15:15.036Z,4924.00
2018-03-21T07:16:15.060Z,5052.00
2018-03-21T07:17:15.085Z,5132.00
2018-03-21T07:18:15.109Z,5216.00
2018-03-21T07:19:15.135Z,5316.00
2018-03-21T07:20:15.159Z,5404.00
2018-03-21T07:21:15.184Z,5488.00
2018-03-21T07:22:15.205Z,5560.00
2018-03-21T07:23:15.231Z,5672.00
2018-03-21T07:24:15.257Z,5772.00
2018-03-21T07:25:15.289Z,5844.00
2018-03-21T07:26:15.306Z,5940.00
2018-03-21T07:27:15.331Z,6040.00
2018-03-21T07:28:15.356Z,6052.00
2018-03-21T07:29:15.381Z,6064.00
2018-03-21T07:30:15.405Z,6096.00
2018-03-21T07:31:15.430Z,6148.00
2018-03-21T07:32:15.467Z,6196.00
2018-03-21T07:33:15.493Z,6236.00
2018-03-21T07:34:15.507Z,6308.00
2018-03-21T07:35:15.533Z,6388.00
2018-03-21T07:36:15.557Z,6448.00
2018-03-21T07:37:15.586Z,6508.00
2018-03-21T07:38:15.606Z,6572.00
2018-03-21T07:39:15.631Z,6632.00
2018-03-21T07:40:15.658Z,6692.00
2018-03-21T07:41:15.683Z,6744.00
2018-03-21T07:42:15.708Z,6828.00
2018-03-21T07:43:15.735Z,6908.00
2018-03-21T07:44:15.761Z,6996.00
2018-03-21T07:45:15.786Z,4928.00
2018-03-21T07:46:15.812Z,5040.00
2018-03-21T07:47:15.838Z,7004.00
2018-03-21T07:48:15.864Z,7364.00
2018-03-21T07:49:15.890Z,7448.00
2018-03-21T07:50:15.915Z,7484.00
2018-03-21T07:51:15.941Z,7528.00
2018-03-21T07:52:15.971Z,7600.00
2018-03-21T07:53:15.994Z,7664.00
2018-03-21T07:54:16.022Z,7748.00
2018-03-21T07:55:16.046Z,7804.00
2018-03-21T07:56:16.073Z,8016.00
2018-03-21T07:57:16.100Z,8152.00
2018-03-21T07:58:16.126Z,8300.00
2018-03-21T07:59:16.152Z,8660.00
2018-03-21T08:00:16.179Z,8972.00
2018-03-21T08:01:16.206Z,7948.00
2018-03-21T08:02:16.305Z,5960.00
2018-03-21T08:03:16.261Z,8696.00
2018-03-21T08:04:16.287Z,9544.00
2018-03-21T08:05:16.315Z,9092.00
2018-03-21T08:06:16.343Z,9264.00
2018-03-21T08:07:16.368Z,9884.00
2018-03-21T08:08:16.405Z,9956.00
2018-03-21T08:09:16.425Z,9404.00
2018-03-21T08:10:16.451Z,11660.00
2018-03-21T08:11:16.480Z,12268.00
2018-03-21T08:12:16.507Z,7996.00
2018-03-21T08:13:16.535Z,8692.00
2018-03-21T08:14:16.567Z,12496.00
2018-03-21T08:15:16.594Z,13992.00
2018-03-21T08:16:16.627Z,14712.00
2018-03-21T08:17:16.648Z,14348.00
2018-03-21T08:18:16.678Z,13796.00
2018-03-21T08:19:16.705Z,14808.00
2018-03-21T08:20:16.733Z,15040.00
2018-03-21T08:21:16.761Z,15108.00
2018-03-21T08:22:16.790Z,13476.00
2018-03-21T08:23:16.818Z,16512.00
2018-03-21T08:24:16.847Z,16640.00
2018-03-21T08:25:16.877Z,15788.00
2018-03-21T08:26:16.904Z,15908.00
2018-03-21T08:27:16.934Z,16544.00
2018-03-21T08:28:16.962Z,17056.00
2018-03-21T08:29:16.998Z,17024.00
2018-03-21T08:30:17.021Z,17440.00
2018-03-21T08:31:17.050Z,17792.00
2018-03-21T08:32:17.080Z,14020.00
2018-03-21T08:33:17.110Z,17024.00
2018-03-21T08:34:17.137Z,16864.00
2018-03-21T08:35:17.169Z,16736.00
2018-03-21T08:36:17.201Z,17408.00
2018-03-21T08:37:17.228Z,17696.00
2018-03-21T08:38:17.257Z,17184.00
2018-03-21T08:39:17.289Z,17280.00
2018-03-21T08:40:17.319Z,17280.00
2018-03-21T08:41:17.349Z,17856.00
2018-03-21T08:42:17.384Z,18208.00
2018-03-21T08:43:17.409Z,14028.00
2018-03-21T08:44:17.440Z,19104.00
2018-03-21T08:45:17.469Z,18880.00
2018-03-21T08:46:17.500Z,16928.00
2018-03-21T08:47:17.533Z,18048.00
2018-03-21T08:48:17.563Z,19840.00
2018-03-21T08:49:17.592Z,24064.00
2018-03-21T08:50:17.623Z,35296.00
2018-03-21T08:51:17.654Z,46752.00
2018-03-21T08:52:17.685Z,47392.00
2018-03-21T08:53:17.717Z,20224.00
2018-03-21T08:54:17.747Z,17440.00
2018-03-21T08:55:17.780Z,28992.00
2018-03-21T08:56:17.811Z,15352.00
2018-03-21T08:57:17.843Z,15148.00
2018-03-21T08:58:17.875Z,16324.00
2018-03-21T08:59:17.910Z,32160.00
2018-03-21T09:00:17.939Z,34208.00
2018-03-21T09:01:17.971Z,34016.00
2018-03-21T09:02:18.002Z,31808.00
2018-03-21T09:03:18.036Z,19200.00
2018-03-21T09:04:18.068Z,18848.00
2018-03-21T09:05:18.102Z,23552.00
2018-03-21T09:06:18.134Z,25664.00
2018-03-21T09:07:18.172Z,28256.00
2018-03-21T09:08:18.202Z,23488.00
2018-03-21T09:09:18.235Z,32512.00
2018-03-21T09:10:18.267Z,49120.00
2018-03-21T09:11:18.300Z,47104.00
2018-03-21T09:12:18.333Z,29376.00
2018-03-21T09:13:18.370Z,71712.00
2018-03-21T09:14:18.405Z,74080.00
2018-03-21T09:15:18.435Z,19872.00
2018-03-21T09:16:18.469Z,21760.00
2018-03-21T09:17:18.504Z,75232.00
2018-03-21T09:18:18.585Z,34944.00
2018-03-21T09:19:18.585Z,21344.00
2018-03-21T09:20:18.608Z,15444.00
2018-03-21T09:21:18.641Z,12720.00
2018-03-21T09:22:18.678Z,11936.00
2018-03-21T09:23:18.708Z,20192.00
2018-03-21T09:24:18.744Z,14588.00
2018-03-21T09:25:18.777Z,14264.00
2018-03-21T09:26:18.810Z,14588.00
2018-03-21T09:27:18.844Z,16448.00
2018-03-21T09:28:18.878Z,15228.00
2018-03-21T09:29:18.916Z,14772.00
2018-03-21T09:30:18.942Z,13932.00
2018-03-21T09:31:19.027Z,13292.00
2018-03-21T09:32:19.009Z,12532.00
2018-03-21T09:33:19.039Z,12412.00
2018-03-21T09:34:19.070Z,13128.00
2018-03-21T09:35:19.103Z,13012.00
2018-03-21T09:36:19.134Z,12584.00
2018-03-21T09:37:19.165Z,11836.00
2018-03-21T09:38:19.197Z,11600.00
2018-03-21T09:39:19.231Z,11560.00
2018-03-21T09:40:19.259Z,11256.00
2018-03-21T09:41:19.289Z,10716.00
2018-03-21T09:42:19.321Z,11060.00
2018-03-21T09:43:19.351Z,11776.00
2018-03-21T09:44:19.381Z,11768.00
2018-03-21T09:45:19.411Z,11688.00
2018-03-21T09:46:19.443Z,14656.00
2018-03-21T09:47:19.471Z,17408.00
2018-03-21T09:48:19.503Z,28704.00
2018-03-21T09:49:19.537Z,14916.00
2018-03-21T09:50:19.560Z,22016.00
2018-03-21T09:51:19.598Z,92608.00
2018-03-21T09:52:19.620Z,93088.00
2018-03-21T09:53:19.652Z,58624.00
2018-03-21T09:54:19.681Z,16536.00
2018-03-21T09:55:19.716Z,14748.00
2018-03-21T09:56:19.745Z,14692.00
2018-03-21T09:57:19.778Z,14340.00
2018-03-21T09:58:19.808Z,14444.00
2018-03-21T09:59:19.841Z,20672.00
2018-03-21T10:00:19.877Z,35584.00
2018-03-21T10:01:19.913Z,16288.00
2018-03-21T10:02:19.937Z,14420.00
2018-03-21T10:03:19.968Z,13756.00
2018-03-21T10:04:20.003Z,13096.00
2018-03-21T10:05:20.031Z,12780.00
2018-03-21T10:06:20.096Z,12668.00
2018-03-21T10:07:20.095Z,12824.00
2018-03-21T10:08:20.127Z,13984.00
2018-03-21T10:09:20.156Z,14424.00
2018-03-21T10:10:20.187Z,14696.00
2018-03-21T10:11:20.221Z,15308.00
2018-03-21T10:12:20.255Z,84256.00
2018-03-21T10:13:20.282Z,48064.00
2018-03-21T10:14:20.324Z,19808.00
2018-03-21T10:15:20.343Z,21600.00
2018-03-21T10:16:20.376Z,19040.00
2018-03-21T10:17:20.406Z,19168.00
2018-03-21T10:18:20.448Z,36992.00
2018-03-21T10:19:20.470Z,20320.00
2018-03-21T10:20:20.510Z,20544.00
2018-03-21T10:21:20.534Z,22688.00
2018-03-21T10:22:20.566Z,18656.00
2018-03-21T10:23:20.645Z,16188.00
2018-03-21T10:24:20.630Z,13912.00
2018-03-21T10:25:20.666Z,12528.00
2018-03-21T10:26:20.693Z,11840.00
2018-03-21T10:27:20.726Z,14300.00
2018-03-21T10:28:20.757Z,56064.00
2018-03-21T10:29:20.820Z,50368.00
2018-03-21T10:30:20.819Z,22560.00
2018-03-21T10:31:20.852Z,62464.00
2018-03-21T10:32:20.884Z,100544.00
2018-03-21T10:33:20.916Z,101408.00
2018-03-21T10:34:20.948Z,21728.00
2018-03-21T10:35:20.982Z,102336.00
2018-03-21T10:36:21.022Z,42848.00
2018-03-21T10:37:21.051Z,63424.00
2018-03-21T10:38:21.084Z,89952.00
2018-03-21T10:39:21.120Z,90368.00
2018-03-21T10:40:21.157Z,94336.00
2018-03-21T10:41:21.190Z,88224.00
2018-03-21T10:42:21.230Z,96416.00
2018-03-21T10:43:21.266Z,90912.00
2018-03-21T10:44:21.302Z,53120.00
2018-03-21T10:45:21.342Z,93088.00
2018-03-21T10:46:21.380Z,100032.00
2018-03-21T10:47:21.422Z,19488.00
2018-03-21T10:48:21.460Z,108864.00
2018-03-21T10:49:21.500Z,106528.00
2018-03-21T10:50:21.540Z,102240.00
2018-03-21T10:51:21.583Z,98720.00
2018-03-21T10:52:21.621Z,25408.00
2018-03-21T10:53:21.668Z,53344.00
2018-03-21T10:54:21.709Z,106080.00
2018-03-21T10:55:21.745Z,74048.00
2018-03-21T10:56:21.787Z,41760.00
2018-03-21T10:57:21.828Z,28736.00
2018-03-21T10:58:21.879Z,103040.00
2018-03-21T10:59:21.912Z,101664.00
2018-03-21T11:00:22.004Z,102368.00
2018-03-21T11:01:21.999Z,16896.00
2018-03-21T11:02:22.057Z,16148.00
2018-03-21T11:03:22.079Z,21440.00
2018-03-21T11:04:22.121Z,112576.00
2018-03-21T11:05:22.162Z,117024.00
2018-03-21T11:06:22.203Z,20160.00
2018-03-21T11:07:22.244Z,50144.00
2018-03-21T11:08:22.289Z,113280.00
2018-03-21T11:09:22.327Z,107200.00
2018-03-21T11:10:22.367Z,112192.00
2018-03-21T11:11:22.409Z,109664.00
2018-03-21T11:12:22.450Z,109952.00
2018-03-21T11:13:22.500Z,112448.00
2018-03-21T11:14:22.530Z,18880.00
2018-03-21T11:15:22.574Z,19552.00
2018-03-21T11:16:22.617Z,58304.00
2018-03-21T11:17:22.659Z,107104.00
2018-03-21T11:18:22.700Z,21696.00
2018-03-21T11:19:22.791Z,99712.00
2018-03-21T11:20:22.784Z,102880.00
2018-03-21T11:21:22.829Z,107040.00
2018-03-21T11:22:22.870Z,112096.00
2018-03-21T11:23:22.910Z,113344.00
2018-03-21T11:24:22.954Z,114144.00
2018-03-21T11:25:22.996Z,114144.00
2018-03-21T11:26:23.039Z,94272.00
2018-03-21T11:27:23.082Z,27648.00
2018-03-21T11:28:23.128Z,33952.00
2018-03-21T11:29:23.173Z,75456.00
2018-03-21T11:30:23.217Z,118336.00
2018-03-21T11:31:23.258Z,28192.00
2018-03-21T11:32:23.314Z,28192.00
2018-03-21T11:33:23.352Z,24832.00
2018-03-21T11:34:23.389Z,76480.00
2018-03-21T11:35:23.432Z,16072.00
2018-03-21T11:36:23.477Z,16860.00
2018-03-21T11:37:23.519Z,36928.00
2018-03-21T11:38:23.563Z,118752.00
2018-03-21T11:39:23.603Z,117440.00
2018-03-21T11:40:23.645Z,114080.00
2018-03-21T11:41:23.686Z,113056.00
2018-03-21T11:42:23.728Z,112832.00
2018-03-21T11:43:23.774Z,118144.00
2018-03-21T11:44:23.814Z,93056.00
2018-03-21T11:45:23.857Z,106976.00
2018-03-21T11:46:23.899Z,111456.00
2018-03-21T11:47:23.943Z,104032.00
2018-03-21T11:48:23.987Z,113952.00
2018-03-21T11:49:24.032Z,33152.00
2018-03-21T11:50:24.075Z,115712.00
2018-03-21T11:51:24.118Z,111008.00
2018-03-21T11:52:24.162Z,109216.00
2018-03-21T11:53:24.207Z,113472.00
2018-03-21T11:54:24.250Z,112896.00
2018-03-21T11:55:24.295Z,108704.00
2018-03-21T11:56:24.380Z,107968.00
2018-03-21T11:57:24.384Z,111552.00
2018-03-21T11:58:24.429Z,112736.00
2018-03-21T11:59:24.476Z,113344.00
2018-03-21T12:00:24.521Z,112704.00
2018-03-21T12:01:24.565Z,112032.00
2018-03-21T12:02:24.611Z,114816.00
2018-03-21T12:03:24.658Z,109216.00
2018-03-21T12:04:24.705Z,79264.00
2018-03-21T12:05:24.751Z,36288.00
2018-03-21T12:06:24.797Z,111200.00
2018-03-21T12:07:24.843Z,103680.00
2018-03-21T12:08:24.890Z,22016.00
2018-03-21T12:09:24.940Z,21984.00
2018-03-21T12:10:24.991Z,106528.00
2018-03-21T12:11:25.032Z,37088.00
2018-03-21T12:12:25.074Z,52992.00
2018-03-21T12:13:25.120Z,22432.00
2018-03-21T12:14:25.164Z,17504.00
2018-03-21T12:15:25.210Z,15252.00
2018-03-21T12:16:25.254Z,14396.00
2018-03-21T12:17:25.299Z,15344.00
2018-03-21T12:18:25.341Z,22496.00
2018-03-21T12:19:25.383Z,24288.00
2018-03-21T12:20:25.426Z,22464.00
2018-03-21T12:21:25.467Z,108384.00
2018-03-21T12:22:25.510Z,105792.00
2018-03-21T12:23:25.549Z,96480.00
2018-03-21T12:24:25.591Z,99424.00
2018-03-21T12:25:25.631Z,94016.00
2018-03-21T12:26:25.672Z,99904.00